createdAt,value
2017-05-01T00:01:36.669Z,99641.11
2017-05-01T00:04:04.122Z,99634.84
2017-05-01T00:06:31.546Z,99641.26
2017-05-01T00:08:58.966Z,99634.20
2017-05-01T00:11:26.409Z,99635.98
2017-05-01T00:13:53.822Z,99634.84
2017-05-01T00:16:21.283Z,99632.88
2017-05-01T00:18:48.743Z,99625.41
2017-05-01T00:21:16.164Z,99635.82
2017-05-01T00:23:43.586Z,99630.42
2017-05-01T00:26:11.034Z,99633.53
2017-05-01T00:28:38.454Z,99632.35
2017-05-01T00:31:05.886Z,99638.46
2017-05-01T00:33:33.335Z,99633.59
2017-05-01T00:36:00.771Z,99632.59
2017-05-01T00:38:28.204Z,99636.91
2017-05-01T00:40:55.653Z,99634.13
2017-05-01T00:43:23.088Z,99636.11
2017-05-01T00:45:50.538Z,99639.76
2017-05-01T00:48:17.987Z,99627.75
2017-05-01T00:50:45.409Z,99635.14
2017-05-01T00:53:12.857Z,99637.83
2017-05-01T00:55:40.302Z,99632.98
2017-05-01T00:58:07.727Z,99638.84
2017-05-01T01:00:35.154Z,99634.13
2017-05-01T01:03:02.594Z,99634.52
2017-05-01T01:05:30.037Z,99632.67
2017-05-01T01:07:58.465Z,99634.11
2017-05-01T01:10:31.451Z,99633.03
2017-05-01T01:12:58.882Z,99629.78
2017-05-01T01:15:26.312Z,99626.26
2017-05-01T01:17:53.754Z,99629.76
2017-05-01T01:20:21.190Z,99625.39
2017-05-01T01:22:48.610Z,99621.75
2017-05-01T01:25:16.049Z,99618.68
2017-05-01T01:27:43.478Z,99625.99
2017-05-01T01:30:10.916Z,99626.11
2017-05-01T01:32:38.406Z,99628.44
2017-05-01T01:35:05.850Z,99629.52
2017-05-01T01:37:33.288Z,99637.88
2017-05-01T01:40:00.741Z,99635.67
2017-05-01T01:42:28.170Z,99640.45
2017-05-01T01:44:55.590Z,99633.39
2017-05-01T01:47:23.037Z,99642.98
2017-05-01T01:49:50.469Z,99643.22
2017-05-01T01:52:17.901Z,99647.69
2017-05-01T01:54:45.350Z,99646.98
2017-05-01T01:57:12.766Z,99647.22
2017-05-01T01:59:40.192Z,99647.22
2017-05-01T02:02:07.671Z,99648.47
2017-05-01T02:04:35.094Z,99648.05
2017-05-01T02:07:02.508Z,99655.88
2017-05-01T02:09:29.945Z,99655.45
2017-05-01T02:11:57.370Z,99660.11
2017-05-01T02:14:24.800Z,99668.66
2017-05-01T02:16:52.253Z,99678.39
2017-05-01T02:19:19.666Z,99676.71
2017-05-01T02:21:47.095Z,99676.00
2017-05-01T02:24:14.542Z,99675.42
2017-05-01T02:26:41.970Z,99674.70
2017-05-01T02:29:09.386Z,99669.98
2017-05-01T02:31:36.843Z,99675.83
2017-05-01T02:34:04.290Z,99666.45
2017-05-01T02:36:31.717Z,99668.03
2017-05-01T02:38:59.174Z,99658.59
2017-05-01T02:41:26.602Z,99661.69
2017-05-01T02:43:54.032Z,99659.83
2017-05-01T02:46:21.490Z,99666.92
2017-05-01T02:48:48.914Z,99659.48
2017-05-01T02:51:16.338Z,99656.44
2017-05-01T02:53:43.786Z,99652.56
2017-05-01T02:56:11.215Z,99657.33
2017-05-01T02:58:38.651Z,99665.57
2017-05-01T03:01:06.117Z,99663.06
2017-05-01T03:03:33.543Z,99669.62
2017-05-01T03:06:00.977Z,99670.27
2017-05-01T03:08:28.434Z,99676.14
2017-05-01T03:10:55.857Z,99666.35
2017-05-01T03:13:23.288Z,99672.73
2017-05-01T03:15:50.757Z,99675.10
2017-05-01T03:18:18.183Z,99672.13
2017-05-01T03:20:45.617Z,99669.97
2017-05-01T03:23:13.081Z,99667.81
2017-05-01T03:25:40.517Z,99664.30
2017-05-01T03:28:07.944Z,99665.42
2017-05-01T03:30:35.402Z,99672.02
2017-05-01T03:33:02.835Z,99669.47
2017-05-01T03:35:30.268Z,99669.52
2017-05-01T03:37:57.735Z,99675.69
2017-05-01T03:40:25.173Z,99677.48
2017-05-01T03:42:52.606Z,99680.80
2017-05-01T03:45:20.065Z,99685.11
2017-05-01T03:47:47.492Z,99681.68
2017-05-01T03:50:14.926Z,99683.20
2017-05-01T03:52:42.385Z,99684.77
2017-05-01T03:55:09.831Z,99688.08
2017-05-01T03:57:37.269Z,99688.64
2017-05-01T04:00:04.726Z,99693.25
2017-05-01T04:02:32.177Z,99688.75
2017-05-01T04:04:59.621Z,99699.11
2017-05-01T04:07:27.085Z,99698.50
2017-05-01T04:09:54.530Z,99698.30
2017-05-01T04:12:21.953Z,99702.11
2017-05-01T04:14:49.386Z,99698.42
2017-05-01T04:17:16.817Z,99698.95
2017-05-01T04:19:44.249Z,99701.58
2017-05-01T04:22:11.705Z,99712.55
2017-05-01T04:24:39.130Z,99709.27
2017-05-01T04:27:06.558Z,99711.59
2017-05-01T04:29:34.011Z,99718.87
2017-05-01T04:32:01.445Z,99717.08
2017-05-01T04:34:28.874Z,99720.77
2017-05-01T04:36:56.309Z,99728.16
2017-05-01T04:39:23.742Z,99736.27
2017-05-01T04:41:51.189Z,99732.58
2017-05-01T04:44:18.629Z,99740.05
2017-05-01T04:46:46.061Z,99744.34
2017-05-01T04:49:13.481Z,99737.27
2017-05-01T04:51:40.917Z,99745.04
2017-05-01T04:54:08.349Z,99748.25
2017-05-01T04:56:35.802Z,99756.97
2017-05-01T04:59:03.244Z,99749.02
2017-05-01T05:01:30.665Z,99748.00
2017-05-01T05:03:58.098Z,99754.48
2017-05-01T05:06:26.482Z,99754.68
2017-05-01T05:08:53.904Z,99760.51
2017-05-01T05:11:21.321Z,99770.95
2017-05-01T05:13:48.773Z,99769.81
2017-05-01T05:16:16.201Z,99772.33
2017-05-01T05:18:43.621Z,99776.64
2017-05-01T05:21:11.073Z,99786.47
2017-05-01T05:23:38.491Z,99786.13
2017-05-01T05:26:05.913Z,99787.69
2017-05-01T05:28:33.365Z,99792.02
2017-05-01T05:31:00.785Z,99794.46
2017-05-01T05:33:28.210Z,99800.28
2017-05-01T05:35:55.654Z,99794.67
2017-05-01T05:38:23.092Z,99800.45
2017-05-01T05:40:50.508Z,99791.70
2017-05-01T05:43:17.953Z,99802.80
2017-05-01T05:45:45.381Z,99801.56
2017-05-01T05:48:12.802Z,99804.74
2017-05-01T05:50:40.249Z,99811.52
2017-05-01T05:53:07.668Z,99808.87
2017-05-01T05:55:35.090Z,99810.80
2017-05-01T05:58:02.535Z,99811.19
2017-05-01T06:00:29.992Z,99812.70
2017-05-01T06:02:57.410Z,99815.16
2017-05-01T06:05:24.876Z,99805.75
2017-05-01T06:07:53.258Z,99816.45
2017-05-01T06:10:20.700Z,99822.05
2017-05-01T06:12:48.125Z,99819.84
2017-05-01T06:15:15.559Z,99824.19
2017-05-01T06:17:43.011Z,99826.77
2017-05-01T06:20:10.433Z,99822.16
2017-05-01T06:22:37.857Z,99827.48
2017-05-01T06:25:05.277Z,99835.53
2017-05-01T06:27:32.699Z,99833.86
2017-05-01T06:30:00.133Z,99834.91
2017-05-01T06:32:27.561Z,99834.73
2017-05-01T06:34:55.079Z,99837.72
2017-05-01T06:37:22.509Z,99842.89
2017-05-01T06:39:49.943Z,99849.84
2017-05-01T06:42:17.396Z,99846.06
2017-05-01T06:44:44.821Z,99854.65
2017-05-01T06:47:12.237Z,99863.50
2017-05-01T06:49:39.669Z,99870.03
2017-05-01T06:52:07.088Z,99868.95
2017-05-01T06:54:34.575Z,99878.88
2017-05-01T06:57:02.077Z,99876.85
2017-05-01T06:59:29.497Z,99880.63
2017-05-01T07:01:56.924Z,99881.06
2017-05-01T07:04:24.355Z,99885.13
2017-05-01T07:06:51.782Z,99891.30
2017-05-01T07:09:26.470Z,99891.92
2017-05-01T07:11:53.889Z,99900.18
2017-05-01T07:14:21.350Z,99906.22
2017-05-01T07:16:48.773Z,99901.37
2017-05-01T07:19:16.191Z,99901.57
2017-05-01T07:21:43.628Z,99907.97
2017-05-01T07:24:11.045Z,99913.12
2017-05-01T07:26:38.465Z,99921.98
2017-05-01T07:29:05.910Z,99915.27
2017-05-01T07:31:33.338Z,99927.84
2017-05-01T07:34:00.778Z,99924.52
2017-05-01T07:36:28.214Z,99927.84
2017-05-01T07:38:55.650Z,99933.20
2017-05-01T07:41:23.158Z,99934.05
2017-05-01T07:43:50.576Z,99939.13
2017-05-01T07:46:17.994Z,99947.70
2017-05-01T07:48:45.442Z,99952.07
2017-05-01T07:51:12.870Z,99956.90
2017-05-01T07:53:40.309Z,99962.95
2017-05-01T07:56:07.758Z,99968.58
2017-05-01T07:58:35.174Z,99980.56
2017-05-01T08:01:02.625Z,99981.09
2017-05-01T08:03:30.074Z,99984.39
2017-05-01T08:05:57.493Z,99988.23
2017-05-01T08:08:25.719Z,99993.20
2017-05-01T08:10:54.202Z,99998.71
2017-05-01T08:13:21.642Z,100007.22
2017-05-01T08:15:49.077Z,100007.27
2017-05-01T08:18:17.040Z,100010.69
2017-05-01T08:20:44.473Z,100018.74
2017-05-01T08:23:11.935Z,100031.80
2017-05-01T08:25:40.371Z,100027.89
2017-05-01T08:28:07.846Z,100041.08
2017-05-01T08:30:35.275Z,100045.73
2017-05-01T08:33:02.738Z,100045.99
2017-05-01T08:35:30.202Z,100050.07
2017-05-01T08:37:59.591Z,100060.87
2017-05-01T08:40:27.058Z,100061.23
2017-05-01T08:42:56.472Z,100068.78
2017-05-01T08:45:23.916Z,100067.31
2017-05-01T08:47:52.130Z,100071.98
2017-05-01T08:50:19.565Z,100074.40
2017-05-01T08:52:47.058Z,100076.96
2017-05-01T08:55:14.534Z,100081.50
2017-05-01T08:57:41.999Z,100083.61
2017-05-01T09:00:12.553Z,100086.47
2017-05-01T09:02:39.991Z,100089.72
2017-05-01T09:05:07.514Z,100088.53
2017-05-01T09:07:34.990Z,100089.94
2017-05-01T09:10:04.424Z,100091.88
2017-05-01T09:12:31.891Z,100096.80
2017-05-01T09:14:59.326Z,100096.61
2017-05-01T09:17:26.759Z,100106.99
2017-05-01T09:19:54.233Z,100108.82
2017-05-01T09:22:21.678Z,100114.43
2017-05-01T09:24:49.112Z,100118.05
2017-05-01T09:27:16.542Z,100112.28
2017-05-01T09:29:43.963Z,100120.83
2017-05-01T09:32:11.390Z,100125.60
2017-05-01T09:34:38.827Z,100132.05
2017-05-01T09:37:06.252Z,100136.70
2017-05-01T09:39:33.697Z,100134.80
2017-05-01T09:42:01.126Z,100138.39
2017-05-01T09:44:28.568Z,100134.04
2017-05-01T09:46:55.997Z,100147.59
2017-05-01T09:49:23.419Z,100147.78
2017-05-01T09:51:50.854Z,100149.27
2017-05-01T09:54:18.282Z,100153.50
2017-05-01T09:56:45.710Z,100158.47
2017-05-01T09:59:13.137Z,100167.89
2017-05-01T10:01:40.564Z,100171.38
2017-05-01T10:04:07.998Z,100175.13
2017-05-01T10:06:46.068Z,100169.94
2017-05-01T10:09:13.490Z,100168.67
2017-05-01T10:11:40.954Z,100173.13
2017-05-01T10:14:09.400Z,100172.52
2017-05-01T10:16:36.846Z,100182.36
2017-05-01T10:19:04.727Z,100181.33
2017-05-01T10:21:32.195Z,100181.22
2017-05-01T10:23:59.614Z,100190.61
2017-05-01T10:26:27.041Z,100189.46
2017-05-01T10:28:54.470Z,100189.09
2017-05-01T10:31:21.909Z,100194.48
2017-05-01T10:34:09.542Z,100197.00
2017-05-01T10:36:36.982Z,100200.06
2017-05-01T10:39:04.426Z,100192.12
2017-05-01T10:41:31.853Z,100197.39
2017-05-01T10:43:59.287Z,100196.33
2017-05-01T10:46:26.724Z,100199.30
2017-05-01T10:48:54.159Z,100196.13
2017-05-01T10:51:21.590Z,100198.34
2017-05-01T10:53:49.010Z,100197.39
2017-05-01T10:56:16.437Z,100204.69
2017-05-01T10:58:43.868Z,100202.86
2017-05-01T11:01:11.294Z,100200.24
2017-05-01T11:03:38.722Z,100197.73
2017-05-01T11:06:06.155Z,100204.83
2017-05-01T11:08:33.586Z,100206.22
2017-05-01T11:11:01.021Z,100212.91
2017-05-01T11:13:28.453Z,100205.09
2017-05-01T11:15:55.882Z,100203.34
2017-05-01T11:18:23.311Z,100206.10
2017-05-01T11:20:50.734Z,100203.73
2017-05-01T11:23:18.170Z,100215.85
2017-05-01T11:25:45.601Z,100213.37
2017-05-01T11:28:13.025Z,100217.27
2017-05-01T11:30:40.457Z,100216.93
2017-05-01T11:33:07.882Z,100219.11
2017-05-01T11:35:35.327Z,100215.59
2017-05-01T11:38:02.781Z,100218.92
2017-05-01T11:40:30.236Z,100228.52
2017-05-01T11:42:57.657Z,100227.22
2017-05-01T11:45:25.078Z,100233.64
2017-05-01T11:47:52.507Z,100231.34
2017-05-01T11:50:19.933Z,100236.09
2017-05-01T11:52:47.358Z,100235.97
2017-05-01T11:55:14.785Z,100239.53
2017-05-01T11:57:42.223Z,100236.23
2017-05-01T12:00:09.650Z,100245.11
2017-05-01T12:02:42.930Z,100244.58
2017-05-01T12:05:10.354Z,100251.73
2017-05-01T12:07:37.818Z,100255.20
2017-05-01T12:10:05.330Z,100250.92
2017-05-01T12:12:36.055Z,100259.30
2017-05-01T12:15:03.573Z,100261.74
2017-05-01T12:17:31.098Z,100262.51
2017-05-01T12:19:58.586Z,100266.45
2017-05-01T12:22:30.150Z,100267.94
2017-05-01T12:24:58.502Z,100270.87
2017-05-01T12:27:25.942Z,100272.38
2017-05-01T12:29:53.387Z,100281.59
2017-05-01T12:32:20.863Z,100290.15
2017-05-01T12:34:48.302Z,100286.86
2017-05-01T12:37:15.734Z,100285.06
2017-05-01T12:39:43.186Z,100284.22
2017-05-01T12:42:22.063Z,100287.74
2017-05-01T12:44:49.494Z,100293.70
2017-05-01T12:47:17.010Z,100296.33
2017-05-01T12:49:44.460Z,100302.09
2017-05-01T12:52:11.915Z,100302.28
2017-05-01T12:54:48.694Z,100300.20
2017-05-01T12:57:16.190Z,100297.18
2017-05-01T12:59:43.987Z,100304.55
2017-05-01T13:02:12.447Z,100309.35
2017-05-01T13:04:43.127Z,100308.43
2017-05-01T13:07:10.554Z,100305.48
2017-05-01T13:09:37.995Z,100309.08
2017-05-01T13:12:05.446Z,100306.52
2017-05-01T13:14:33.878Z,100309.27
2017-05-01T13:17:01.326Z,100308.43
2017-05-01T13:19:28.768Z,100303.77
2017-05-01T13:21:56.205Z,100307.36
2017-05-01T13:24:23.640Z,100308.51
2017-05-01T13:26:51.076Z,100308.90
2017-05-01T13:29:18.506Z,100309.98
2017-05-01T13:31:45.996Z,100309.30
2017-05-01T13:34:13.455Z,100317.53
2017-05-01T13:36:40.890Z,100318.53
2017-05-01T13:39:11.918Z,100328.05
2017-05-01T13:41:39.352Z,100328.13
2017-05-01T13:44:06.779Z,100323.89
2017-05-01T13:46:34.223Z,100332.14
2017-05-01T13:49:01.654Z,100330.77
2017-05-01T13:51:29.090Z,100326.53
2017-05-01T13:53:56.526Z,100331.50
2017-05-01T13:56:23.954Z,100334.67
2017-05-01T13:58:52.298Z,100337.73
2017-05-01T14:01:19.735Z,100337.73
2017-05-01T14:03:48.140Z,100341.33
2017-05-01T14:06:15.571Z,100347.78
2017-05-01T14:08:43.002Z,100352.03
2017-05-01T14:11:10.434Z,100349.81
2017-05-01T14:13:37.882Z,100358.48
2017-05-01T14:16:05.334Z,100357.31
2017-05-01T14:18:32.766Z,100361.21
2017-05-01T14:21:01.202Z,100353.80
2017-05-01T14:23:28.652Z,100358.34
2017-05-01T14:25:56.103Z,100359.88
2017-05-01T14:28:23.562Z,100364.55
2017-05-01T14:30:51.015Z,100364.55
2017-05-01T14:33:18.470Z,100366.91
2017-05-01T14:35:45.917Z,100370.20
2017-05-01T14:38:13.376Z,100370.05
2017-05-01T14:40:40.814Z,100367.30
2017-05-01T14:43:08.237Z,100372.41
2017-05-01T14:45:35.670Z,100373.79
2017-05-01T14:48:03.102Z,100370.00
2017-05-01T14:50:30.523Z,100374.66
2017-05-01T14:52:57.946Z,100374.05
2017-05-01T14:55:25.379Z,100377.56
2017-05-01T14:57:53.970Z,100380.73
2017-05-01T15:00:21.400Z,100378.63
2017-05-01T15:02:48.843Z,100374.84
2017-05-01T15:05:16.278Z,100372.20
2017-05-01T15:13:40.322Z,100385.29
2017-05-01T15:16:07.854Z,100383.83
2017-05-01T15:18:35.412Z,100389.90
2017-05-01T15:21:02.862Z,100395.52
2017-05-01T15:23:30.299Z,100397.25
2017-05-01T15:25:57.740Z,100402.56
2017-05-01T15:28:25.187Z,100404.47
2017-05-01T15:30:52.623Z,100404.05
2017-05-01T15:33:21.521Z,100410.20
2017-05-01T15:35:48.979Z,100410.53
2017-05-01T15:38:16.520Z,100410.14
2017-05-01T15:40:53.942Z,100407.44
2017-05-01T15:43:21.382Z,100409.48
2017-05-01T15:45:50.067Z,100410.89
2017-05-01T15:48:17.502Z,100411.67
2017-05-01T15:50:44.954Z,100407.88
2017-05-01T15:53:20.274Z,100412.34
2017-05-01T15:55:47.835Z,100411.30
2017-05-01T15:58:15.266Z,100411.94
2017-05-01T16:00:42.771Z,100418.23
2017-05-01T16:03:10.234Z,100421.56
2017-05-01T16:05:37.684Z,100416.48
2017-05-01T16:08:05.152Z,100419.23
2017-05-01T16:10:37.568Z,100416.80
2017-05-01T16:13:05.014Z,100420.81
2017-05-01T16:15:32.447Z,100425.67
2017-05-01T16:18:00.978Z,100424.61
2017-05-01T16:20:28.478Z,100423.23
2017-05-01T16:22:55.916Z,100421.33
2017-05-01T16:25:23.426Z,100418.27
2017-05-01T16:27:51.067Z,100415.20
2017-05-01T16:30:18.653Z,100416.47
2017-05-01T16:32:46.474Z,100422.28
2017-05-01T16:35:13.942Z,100419.42
2017-05-01T16:37:41.376Z,100423.44
2017-05-01T16:40:08.806Z,100427.02
2017-05-01T16:42:37.183Z,100425.45
2017-05-01T16:45:04.606Z,100423.34
2017-05-01T16:47:32.034Z,100428.42
2017-05-01T16:49:59.469Z,100425.36
2017-05-01T16:52:26.898Z,100438.38
2017-05-01T16:54:54.321Z,100431.30
2017-05-01T16:57:21.742Z,100435.43
2017-05-01T16:59:49.171Z,100443.26
2017-05-01T17:02:16.600Z,100448.23
2017-05-01T17:04:44.030Z,100447.91
2017-05-01T17:07:16.476Z,100449.86
2017-05-01T17:09:43.917Z,100443.63
2017-05-01T17:12:11.342Z,100450.19
2017-05-01T17:14:38.770Z,100442.58
2017-05-01T17:17:06.199Z,100447.34
2017-05-01T17:19:33.617Z,100447.03
2017-05-01T17:22:01.049Z,100451.38
2017-05-01T17:24:28.499Z,100453.39
2017-05-01T17:26:55.945Z,100459.42
2017-05-01T17:29:23.375Z,100449.60
2017-05-01T17:31:50.807Z,100448.48
2017-05-01T17:34:18.239Z,100458.74
2017-05-01T17:36:45.687Z,100456.21
2017-05-01T17:39:13.110Z,100458.34
2017-05-01T17:41:40.541Z,100455.50
2017-05-01T17:44:07.973Z,100453.92
2017-05-01T17:46:35.406Z,100462.95
2017-05-01T17:49:02.839Z,100460.00
2017-05-01T17:51:30.306Z,100460.22
2017-05-01T17:53:57.758Z,100462.77
2017-05-01T17:56:25.193Z,100465.31
2017-05-01T17:58:52.617Z,100471.45
2017-05-01T18:01:20.101Z,100466.84
2017-05-01T18:03:47.535Z,100474.42
2017-05-01T18:06:14.965Z,100472.42
2017-05-01T18:08:42.392Z,100476.77
2017-05-01T18:11:09.824Z,100484.39
2017-05-01T18:13:37.251Z,100488.41
2017-05-01T18:16:04.678Z,100488.34
2017-05-01T18:18:32.135Z,100488.78
2017-05-01T18:20:59.571Z,100495.13
2017-05-01T18:23:26.996Z,100492.39
2017-05-01T18:25:54.446Z,100498.66
2017-05-01T18:28:21.875Z,100501.73
2017-05-01T18:30:49.313Z,100502.59
2017-05-01T18:33:18.730Z,100497.00
2017-05-01T18:35:46.161Z,100498.16
2017-05-01T18:38:13.590Z,100497.56
2017-05-01T18:40:41.038Z,100505.70
2017-05-01T18:43:08.462Z,100501.80
2017-05-01T18:45:35.885Z,100501.17
2017-05-01T18:48:03.414Z,100501.39
2017-05-01T18:50:30.849Z,100499.06
2017-05-01T18:52:58.275Z,100504.81
2017-05-01T18:55:25.726Z,100505.97
2017-05-01T18:57:53.163Z,100511.68
2017-05-01T19:00:20.595Z,100517.49
2017-05-01T19:02:48.039Z,100517.81
2017-05-01T19:05:15.506Z,100520.06
2017-05-01T19:07:42.942Z,100522.71
2017-05-01T19:10:10.408Z,100523.45
2017-05-01T19:12:37.849Z,100528.31
2017-05-01T19:15:05.348Z,100531.27
2017-05-01T19:17:32.794Z,100538.77
2017-05-01T19:20:00.221Z,100543.66
2017-05-01T19:22:27.654Z,100545.14
2017-05-01T19:24:55.102Z,100549.05
2017-05-01T19:27:22.538Z,100552.42
2017-05-01T19:29:49.957Z,100550.42
2017-05-01T19:32:17.412Z,100551.05
2017-05-01T19:34:44.830Z,100555.37
2017-05-01T19:37:12.253Z,100559.28
2017-05-01T19:39:39.707Z,100556.25
2017-05-01T19:42:07.139Z,100559.63
2017-05-01T19:44:34.558Z,100564.48
2017-05-01T19:47:02.002Z,100564.59
2017-05-01T19:49:29.425Z,100561.64
2017-05-01T19:51:56.962Z,100558.58
2017-05-01T19:54:24.412Z,100567.76
2017-05-01T19:56:51.858Z,100563.11
2017-05-01T19:59:19.297Z,100563.22
2017-05-01T20:01:46.746Z,100557.84
2017-05-01T20:04:14.182Z,100559.10
2017-05-01T20:06:41.625Z,100564.17
2017-05-01T20:09:09.075Z,100558.25
2017-05-01T20:11:36.642Z,100563.75
2017-05-01T20:14:04.084Z,100563.75
2017-05-01T20:16:31.537Z,100565.64
2017-05-01T20:18:58.981Z,100559.20
2017-05-01T20:21:27.266Z,100563.64
2017-05-01T20:23:54.774Z,100562.77
2017-05-01T20:26:23.191Z,100559.71
2017-05-01T20:28:50.635Z,100559.89
2017-05-01T20:31:18.091Z,100560.09
2017-05-01T20:33:45.523Z,100561.26
2017-05-01T20:36:12.962Z,100563.76
2017-05-01T20:38:40.410Z,100559.64
2017-05-01T20:41:08.869Z,100556.05
2017-05-01T20:43:36.307Z,100550.62
2017-05-01T20:46:03.773Z,100541.11
2017-05-01T20:48:31.226Z,100539.52
2017-05-01T20:50:58.668Z,100540.68
2017-05-01T20:53:26.131Z,100549.66
2017-05-01T20:55:57.791Z,100552.94
2017-05-01T20:58:25.249Z,100550.19
2017-05-01T21:00:52.718Z,100544.27
2017-05-01T21:03:20.153Z,100548.39
2017-05-01T21:05:50.801Z,100546.49
2017-05-01T21:08:18.261Z,100546.06
2017-05-01T21:10:45.698Z,100546.06
2017-05-01T21:13:13.131Z,100542.05
2017-05-01T21:15:40.594Z,100538.47
2017-05-01T21:18:08.035Z,100538.57
2017-05-01T21:20:35.476Z,100538.68
2017-05-01T21:23:02.935Z,100541.53
2017-05-01T21:25:30.369Z,100537.41
2017-05-01T21:27:57.809Z,100538.58
2017-05-01T21:30:25.272Z,100541.00
2017-05-01T21:32:52.710Z,100539.73
2017-05-01T21:35:22.127Z,100545.37
2017-05-01T21:37:49.597Z,100549.70
2017-05-01T21:40:17.042Z,100541.99
2017-05-01T21:42:44.486Z,100537.56
2017-05-01T21:45:11.950Z,100537.77
2017-05-01T21:47:39.390Z,100535.98
2017-05-01T21:50:06.821Z,100550.77
2017-05-01T21:52:34.298Z,100543.48
2017-05-01T21:55:01.746Z,100539.04
2017-05-01T21:57:36.815Z,100542.42
2017-05-01T22:00:04.247Z,100543.38
2017-05-01T22:02:31.683Z,100538.63
2017-05-01T22:04:59.148Z,100540.00
2017-05-01T22:07:26.585Z,100536.97
2017-05-01T22:09:54.024Z,100533.80
2017-05-01T22:12:21.493Z,100538.97
2017-05-01T22:14:48.919Z,100534.44
2017-05-01T22:17:16.358Z,100536.33
2017-05-01T22:19:43.819Z,100538.23
2017-05-01T22:22:11.255Z,100537.18
2017-05-01T22:24:38.703Z,100542.67
2017-05-01T22:27:06.167Z,100546.79
2017-05-01T22:29:33.626Z,100540.56
2017-05-01T22:32:01.053Z,100539.72
2017-05-01T22:34:28.526Z,100536.66
2017-05-01T22:36:55.958Z,100536.76
2017-05-01T22:39:23.395Z,100529.47
2017-05-01T22:41:50.883Z,100534.23
2017-05-01T22:44:18.311Z,100523.66
2017-05-01T22:46:45.750Z,100529.27
2017-05-01T22:49:13.197Z,100529.27
2017-05-01T22:51:40.630Z,100528.31
2017-05-01T22:54:08.059Z,100526.34
2017-05-01T22:56:35.522Z,100527.19
2017-05-01T22:59:02.956Z,100522.75
2017-05-01T23:01:30.393Z,100523.17
2017-05-01T23:03:57.843Z,100514.09
2017-05-01T23:06:25.279Z,100513.77
2017-05-01T23:08:52.709Z,100511.13
2017-05-01T23:11:20.165Z,100514.83
2017-05-01T23:13:47.606Z,100513.14
2017-05-01T23:16:15.042Z,100513.14
2017-05-01T23:18:42.498Z,100510.82
2017-05-01T23:21:09.929Z,100507.76
2017-05-01T23:23:37.366Z,100508.28
2017-05-01T23:26:04.834Z,100510.08
2017-05-01T23:28:32.294Z,100510.61
2017-05-01T23:30:59.737Z,100504.17
2017-05-01T23:33:27.191Z,100502.91
2017-05-01T23:35:54.626Z,100509.23
2017-05-01T23:38:22.063Z,100506.91
2017-05-01T23:40:49.534Z,100506.81
2017-05-01T23:43:16.973Z,100503.43
2017-05-01T23:45:44.411Z,100499.73
2017-05-01T23:48:11.862Z,100496.14
2017-05-01T23:50:39.303Z,100498.16
2017-05-01T23:53:06.742Z,100501.84
2017-05-01T23:55:34.197Z,100501.31
2017-05-01T23:58:01.639Z,100500.58
